Hlavní strana
METAR-TAF:

METAR-TAF

Letiště :

Pikeville, Kentucky, Spojené státy americké

zeměpisná šířka: 37-33-42N, zeměpisná délka: 082-33-59W, výška: 449 m

Aktuální stav počasí

Zpráva byla vytvořena před 29 minutami, v 23:55 UTC
Bezvětří
Teplota 4°C
Vlhkost vzduchu 75%
Tlak 1027 hPa
Viditelnost: 16.1 km
Jasno

METAR: KPBX 072355Z AUTO 00000KT 10SM CLR 04/00 A3033 RMK AO2 T00350001 10054 20035

Čas: 19:24 (00:24 UTC)


TAF: chybějící

Stav a předpovědi počasí z více než 4 000 letišť (zprávy METAR a TAF).

Červené a žluté tečky na mapě představují dostupné meteorologické stanice.

Když kurzor umístíte na tečku, zobrazí se název stanice.

Pak kliknutím zobrazíte stav a předpověď počasí.

Chcete-li změnit mapu, kliknutím na zelené tlačítko se znaménkem +mapu přiblížíte, kliknutím na zelené tlačítko se znaménkem – mapu oddálíte a kliknutím na zelené šipky přejdete na sousední mapy.


METAR-TAF: